sensor_id;sensor_type;location;lat;lon;timestamp;P1;durP1;ratioP1;P2;durP2;ratioP2
20880;SDS011;10600;53.096;8.802;2022-07-22T00:00:20;11.13;;;5.78;;
20880;SDS011;10600;53.096;8.802;2022-07-22T00:01:21;11.25;;;8.13;;
20880;SDS011;10600;53.096;8.802;2022-07-22T00:02:21;10.68;;;7.43;;
20880;SDS011;10600;53.096;8.802;2022-07-22T00:03:22;8.85;;;5.00;;
20880;SDS011;10600;53.096;8.802;2022-07-22T00:04:23;14.57;;;7.85;;
20880;SDS011;10600;53.096;8.802;2022-07-22T00:05:23;10.20;;;7.13;;
20880;SDS011;10600;53.096;8.802;2022-07-22T00:06:24;11.73;;;6.85;;
20880;SDS011;10600;53.096;8.802;2022-07-22T00:07:25;11.20;;;7.15;;
20880;SDS011;10600;53.096;8.802;2022-07-22T00:08:26;12.48;;;7.50;;
20880;SDS011;10600;53.096;8.802;2022-07-22T00:09:36;11.75;;;7.35;;
20880;SDS011;10600;53.096;8.802;2022-07-22T00:10:41;10.32;;;7.30;;
20880;SDS011;10600;53.096;8.802;2022-07-22T00:11:42;12.70;;;7.75;;
20880;SDS011;10600;53.096;8.802;2022-07-22T00:12:43;13.77;;;7.93;;
20880;SDS011;10600;53.096;8.802;2022-07-22T00:13:44;16.25;;;8.88;;
20880;SDS011;10600;53.096;8.802;2022-07-22T00:14:46;13.00;;;7.93;;
20880;SDS011;10600;53.096;8.802;2022-07-22T00:15:47;13.85;;;7.82;;
20880;SDS011;10600;53.096;8.802;2022-07-22T00:16:47;16.65;;;8.40;;
20880;SDS011;10600;53.096;8.802;2022-07-22T00:17:49;12.77;;;7.28;;
20880;SDS011;10600;53.096;8.802;2022-07-22T00:18:49;12.77;;;7.68;;
20880;SDS011;10600;53.096;8.802;2022-07-22T00:19:50;13.25;;;8.20;;
20880;SDS011;10600;53.096;8.802;2022-07-22T00:20:51;14.25;;;8.15;;
20880;SDS011;10600;53.096;8.802;2022-07-22T00:21:52;10.45;;;7.43;;
20880;SDS011;10600;53.096;8.802;2022-07-22T00:22:53;14.13;;;8.57;;
20880;SDS011;10600;53.096;8.802;2022-07-22T00:23:54;14.73;;;7.85;;
20880;SDS011;10600;53.096;8.802;2022-07-22T00:24:55;13.63;;;7.82;;
20880;SDS011;10600;53.096;8.802;2022-07-22T00:25:56;12.57;;;7.57;;
20880;SDS011;10600;53.096;8.802;2022-07-22T00:26:57;13.38;;;8.25;;
20880;SDS011;10600;53.096;8.802;2022-07-22T00:27:57;12.63;;;7.68;;
20880;SDS011;10600;53.096;8.802;2022-07-22T00:28:58;12.05;;;7.25;;
20880;SDS011;10600;53.096;8.802;2022-07-22T00:30:00;11.70;;;8.30;;
20880;SDS011;10600;53.096;8.802;2022-07-22T00:31:01;11.90;;;8.65;;
20880;SDS011;10600;53.096;8.802;2022-07-22T00:32:05;16.48;;;9.32;;
20880;SDS011;10600;53.096;8.802;2022-07-22T00:33:06;13.40;;;8.18;;
20880;SDS011;10600;53.096;8.802;2022-07-22T00:34:07;13.68;;;7.47;;
20880;SDS011;10600;53.096;8.802;2022-07-22T00:35:08;11.63;;;8.48;;
20880;SDS011;10600;53.096;8.802;2022-07-22T00:36:10;13.95;;;7.57;;
20880;SDS011;10600;53.096;8.802;2022-07-22T00:37:10;14.35;;;7.95;;
20880;SDS011;10600;53.096;8.802;2022-07-22T00:38:11;16.20;;;7.32;;
20880;SDS011;10600;53.096;8.802;2022-07-22T00:39:12;17.27;;;8.60;;
20880;SDS011;10600;53.096;8.802;2022-07-22T00:40:13;15.05;;;9.65;;
20880;SDS011;10600;53.096;8.802;2022-07-22T00:41:14;14.73;;;8.32;;
20880;SDS011;10600;53.096;8.802;2022-07-22T00:42:14;12.80;;;8.32;;
20880;SDS011;10600;53.096;8.802;2022-07-22T00:43:16;15.82;;;9.43;;
20880;SDS011;10600;53.096;8.802;2022-07-22T00:44:16;15.02;;;7.28;;
20880;SDS011;10600;53.096;8.802;2022-07-22T00:45:18;15.05;;;8.30;;
20880;SDS011;10600;53.096;8.802;2022-07-22T00:46:19;21.35;;;10.93;;
20880;SDS011;10600;53.096;8.802;2022-07-22T00:47:21;15.07;;;9.73;;
20880;SDS011;10600;53.096;8.802;2022-07-22T00:48:21;17.77;;;8.60;;
20880;SDS011;10600;53.096;8.802;2022-07-22T00:49:22;16.25;;;8.70;;
20880;SDS011;10600;53.096;8.802;2022-07-22T00:50:23;17.88;;;9.20;;
20880;SDS011;10600;53.096;8.802;2022-07-22T00:51:25;22.10;;;10.60;;
20880;SDS011;10600;53.096;8.802;2022-07-22T00:52:27;19.20;;;10.45;;
20880;SDS011;10600;53.096;8.802;2022-07-22T00:53:28;20.70;;;10.88;;
20880;SDS011;10600;53.096;8.802;2022-07-22T00:54:29;19.95;;;9.23;;
20880;SDS011;10600;53.096;8.802;2022-07-22T00:55:32;14.57;;;8.52;;
20880;SDS011;10600;53.096;8.802;2022-07-22T00:56:34;18.73;;;9.57;;
20880;SDS011;10600;53.096;8.802;2022-07-22T00:57:38;18.30;;;9.65;;
20880;SDS011;10600;53.096;8.802;2022-07-22T00:58:40;17.95;;;8.60;;
20880;SDS011;10600;53.096;8.802;2022-07-22T00:59:41;17.05;;;8.05;;
20880;SDS011;10600;53.096;8.802;2022-07-22T01:00:42;17.88;;;7.80;;
20880;SDS011;10600;53.096;8.802;2022-07-22T01:01:43;14.75;;;8.02;;
20880;SDS011;10600;53.096;8.802;2022-07-22T01:02:43;15.27;;;8.38;;
20880;SDS011;10600;53.096;8.802;2022-07-22T01:03:44;15.68;;;8.02;;
20880;SDS011;10600;53.096;8.802;2022-07-22T01:04:45;13.25;;;7.55;;
20880;SDS011;10600;53.096;8.802;2022-07-22T01:05:46;11.18;;;5.90;;
20880;SDS011;10600;53.096;8.802;2022-07-22T01:06:47;14.52;;;7.97;;
20880;SDS011;10600;53.096;8.802;2022-07-22T01:07:47;14.35;;;7.60;;
20880;SDS011;10600;53.096;8.802;2022-07-22T01:08:48;13.60;;;6.05;;
20880;SDS011;10600;53.096;8.802;2022-07-22T01:09:49;16.58;;;7.30;;
20880;SDS011;10600;53.096;8.802;2022-07-22T01:10:50;11.18;;;4.70;;
20880;SDS011;10600;53.096;8.802;2022-07-22T01:11:50;11.90;;;6.15;;
20880;SDS011;10600;53.096;8.802;2022-07-22T01:12:51;16.88;;;7.85;;
20880;SDS011;10600;53.096;8.802;2022-07-22T01:13:53;20.95;;;8.57;;
20880;SDS011;10600;53.096;8.802;2022-07-22T01:14:55;11.85;;;6.50;;
20880;SDS011;10600;53.096;8.802;2022-07-22T01:15:56;13.40;;;6.10;;
20880;SDS011;10600;53.096;8.802;2022-07-22T01:16:56;19.50;;;8.57;;
20880;SDS011;10600;53.096;8.802;2022-07-22T01:17:57;19.42;;;7.60;;
20880;SDS011;10600;53.096;8.802;2022-07-22T01:18:58;17.70;;;7.75;;
20880;SDS011;10600;53.096;8.802;2022-07-22T01:20:00;11.65;;;6.20;;
20880;SDS011;10600;53.096;8.802;2022-07-22T01:21:03;17.58;;;7.35;;
20880;SDS011;10600;53.096;8.802;2022-07-22T01:22:05;13.65;;;6.15;;
20880;SDS011;10600;53.096;8.802;2022-07-22T01:23:06;15.98;;;5.85;;
20880;SDS011;10600;53.096;8.802;2022-07-22T01:24:07;13.43;;;7.00;;
20880;SDS011;10600;53.096;8.802;2022-07-22T01:25:08;11.55;;;4.78;;
20880;SDS011;10600;53.096;8.802;2022-07-22T01:26:08;12.30;;;6.07;;
20880;SDS011;10600;53.096;8.802;2022-07-22T01:27:09;6.45;;;4.18;;
20880;SDS011;10600;53.096;8.802;2022-07-22T01:28:10;12.77;;;5.53;;
20880;SDS011;10600;53.096;8.802;2022-07-22T01:29:11;11.70;;;5.63;;
20880;SDS011;10600;53.096;8.802;2022-07-22T01:30:11;9.90;;;5.25;;
20880;SDS011;10600;53.096;8.802;2022-07-22T01:31:12;11.07;;;5.45;;
20880;SDS011;10600;53.096;8.802;2022-07-22T01:32:13;15.02;;;5.93;;
20880;SDS011;10600;53.096;8.802;2022-07-22T01:33:14;9.70;;;4.18;;
20880;SDS011;10600;53.096;8.802;2022-07-22T01:34:14;17.15;;;5.68;;
20880;SDS011;10600;53.096;8.802;2022-07-22T01:35:15;15.57;;;5.65;;
20880;SDS011;10600;53.096;8.802;2022-07-22T01:36:25;12.10;;;6.38;;
20880;SDS011;10600;53.096;8.802;2022-07-22T01:37:26;10.45;;;4.40;;
20880;SDS011;10600;53.096;8.802;2022-07-22T01:38:27;11.70;;;5.53;;
20880;SDS011;10600;53.096;8.802;2022-07-22T01:39:28;15.88;;;6.40;;
20880;SDS011;10600;53.096;8.802;2022-07-22T01:40:29;17.83;;;7.32;;
20880;SDS011;10600;53.096;8.802;2022-07-22T01:41:29;14.57;;;6.88;;
20880;SDS011;10600;53.096;8.802;2022-07-22T01:42:30;13.10;;;6.32;;
20880;SDS011;10600;53.096;8.802;2022-07-22T01:43:31;19.27;;;6.75;;
20880;SDS011;10600;53.096;8.802;2022-07-22T01:44:32;12.88;;;6.53;;
20880;SDS011;10600;53.096;8.802;2022-07-22T01:45:33;15.77;;;7.13;;
20880;SDS011;10600;53.096;8.802;2022-07-22T01:46:34;18.88;;;7.45;;
20880;SDS011;10600;53.096;8.802;2022-07-22T01:47:35;15.52;;;7.20;;
20880;SDS011;10600;53.096;8.802;2022-07-22T01:48:36;14.32;;;8.38;;
20880;SDS011;10600;53.096;8.802;2022-07-22T01:49:37;13.15;;;7.47;;
20880;SDS011;10600;53.096;8.802;2022-07-22T01:50:37;14.88;;;7.57;;
20880;SDS011;10600;53.096;8.802;2022-07-22T01:51:38;11.82;;;5.68;;
20880;SDS011;10600;53.096;8.802;2022-07-22T01:52:39;16.80;;;7.70;;
20880;SDS011;10600;53.096;8.802;2022-07-22T01:53:40;20.30;;;9.27;;
20880;SDS011;10600;53.096;8.802;2022-07-22T01:54:41;15.68;;;8.35;;
20880;SDS011;10600;53.096;8.802;2022-07-22T01:55:41;18.15;;;9.00;;
20880;SDS011;10600;53.096;8.802;2022-07-22T01:56:42;16.15;;;7.22;;
20880;SDS011;10600;53.096;8.802;2022-07-22T01:57:43;13.70;;;8.02;;
20880;SDS011;10600;53.096;8.802;2022-07-22T01:58:44;18.13;;;8.55;;
20880;SDS011;10600;53.096;8.802;2022-07-22T01:59:45;15.73;;;7.95;;
20880;SDS011;10600;53.096;8.802;2022-07-22T02:00:45;14.57;;;7.38;;
20880;SDS011;10600;53.096;8.802;2022-07-22T02:01:48;19.00;;;7.63;;
20880;SDS011;10600;53.096;8.802;2022-07-22T02:02:49;19.48;;;7.38;;
20880;SDS011;10600;53.096;8.802;2022-07-22T02:03:49;20.50;;;8.93;;
20880;SDS011;10600;53.096;8.802;2022-07-22T02:04:50;16.35;;;8.85;;
20880;SDS011;10600;53.096;8.802;2022-07-22T02:05:51;16.88;;;8.68;;
20880;SDS011;10600;53.096;8.802;2022-07-22T02:06:52;16.60;;;8.93;;
20880;SDS011;10600;53.096;8.802;2022-07-22T02:07:52;14.75;;;7.28;;
20880;SDS011;10600;53.096;8.802;2022-07-22T02:08:53;17.88;;;9.05;;
20880;SDS011;10600;53.096;8.802;2022-07-22T02:09:54;12.95;;;8.02;;
20880;SDS011;10600;53.096;8.802;2022-07-22T02:10:54;15.43;;;8.48;;
20880;SDS011;10600;53.096;8.802;2022-07-22T02:11:55;15.90;;;8.82;;
20880;SDS011;10600;53.096;8.802;2022-07-22T02:12:56;14.70;;;7.95;;
20880;SDS011;10600;53.096;8.802;2022-07-22T02:13:57;15.45;;;7.65;;
20880;SDS011;10600;53.096;8.802;2022-07-22T02:14:58;19.65;;;8.38;;
20880;SDS011;10600;53.096;8.802;2022-07-22T02:15:59;18.20;;;8.13;;
20880;SDS011;10600;53.096;8.802;2022-07-22T02:16:59;14.90;;;7.18;;
20880;SDS011;10600;53.096;8.802;2022-07-22T02:18:00;15.48;;;7.20;;
20880;SDS011;10600;53.096;8.802;2022-07-22T02:19:12;15.23;;;5.80;;
20880;SDS011;10600;53.096;8.802;2022-07-22T02:20:12;9.55;;;5.88;;
20880;SDS011;10600;53.096;8.802;2022-07-22T02:21:13;11.25;;;5.05;;
20880;SDS011;10600;53.096;8.802;2022-07-22T02:22:14;11.30;;;6.18;;
20880;SDS011;10600;53.096;8.802;2022-07-22T02:23:15;12.70;;;5.13;;
20880;SDS011;10600;53.096;8.802;2022-07-22T02:24:16;8.45;;;5.90;;
20880;SDS011;10600;53.096;8.802;2022-07-22T02:25:17;9.90;;;4.78;;
20880;SDS011;10600;53.096;8.802;2022-07-22T02:26:18;10.18;;;4.90;;
20880;SDS011;10600;53.096;8.802;2022-07-22T02:27:19;9.32;;;4.72;;
20880;SDS011;10600;53.096;8.802;2022-07-22T02:28:20;8.60;;;4.63;;
20880;SDS011;10600;53.096;8.802;2022-07-22T02:29:20;10.55;;;3.50;;
20880;SDS011;10600;53.096;8.802;2022-07-22T02:30:21;7.00;;;2.92;;
20880;SDS011;10600;53.096;8.802;2022-07-22T02:31:22;11.00;;;4.78;;
20880;SDS011;10600;53.096;8.802;2022-07-22T02:32:23;11.50;;;4.30;;
20880;SDS011;10600;53.096;8.802;2022-07-22T02:33:24;10.65;;;4.22;;
20880;SDS011;10600;53.096;8.802;2022-07-22T02:34:25;11.50;;;3.83;;
20880;SDS011;10600;53.096;8.802;2022-07-22T02:35:26;8.15;;;4.00;;
20880;SDS011;10600;53.096;8.802;2022-07-22T02:36:26;12.55;;;4.72;;
20880;SDS011;10600;53.096;8.802;2022-07-22T02:37:27;12.25;;;4.05;;
20880;SDS011;10600;53.096;8.802;2022-07-22T02:38:28;9.63;;;3.38;;
20880;SDS011;10600;53.096;8.802;2022-07-22T02:39:29;11.05;;;4.28;;
20880;SDS011;10600;53.096;8.802;2022-07-22T02:40:29;14.40;;;3.60;;
20880;SDS011;10600;53.096;8.802;2022-07-22T02:41:30;9.02;;;3.65;;
20880;SDS011;10600;53.096;8.802;2022-07-22T02:42:32;10.20;;;4.07;;
20880;SDS011;10600;53.096;8.802;2022-07-22T02:43:33;11.25;;;4.05;;
20880;SDS011;10600;53.096;8.802;2022-07-22T02:44:34;8.25;;;3.83;;
20880;SDS011;10600;53.096;8.802;2022-07-22T02:45:34;8.35;;;3.97;;
20880;SDS011;10600;53.096;8.802;2022-07-22T02:46:35;9.90;;;4.05;;
20880;SDS011;10600;53.096;8.802;2022-07-22T02:47:44;12.90;;;4.90;;
20880;SDS011;10600;53.096;8.802;2022-07-22T02:48:52;13.30;;;4.22;;
20880;SDS011;10600;53.096;8.802;2022-07-22T02:49:52;8.75;;;4.40;;
20880;SDS011;10600;53.096;8.802;2022-07-22T02:50:53;6.97;;;4.32;;
20880;SDS011;10600;53.096;8.802;2022-07-22T02:51:54;7.07;;;4.45;;
20880;SDS011;10600;53.096;8.802;2022-07-22T02:52:55;10.30;;;4.85;;
20880;SDS011;10600;53.096;8.802;2022-07-22T02:53:55;13.43;;;5.20;;
20880;SDS011;10600;53.096;8.802;2022-07-22T02:54:56;12.57;;;5.22;;
20880;SDS011;10600;53.096;8.802;2022-07-22T02:55:57;13.48;;;5.03;;
20880;SDS011;10600;53.096;8.802;2022-07-22T02:56:58;15.68;;;4.30;;
20880;SDS011;10600;53.096;8.802;2022-07-22T02:58:03;9.57;;;5.20;;
20880;SDS011;10600;53.096;8.802;2022-07-22T02:59:05;9.80;;;5.75;;
20880;SDS011;10600;53.096;8.802;2022-07-22T03:00:06;15.93;;;6.28;;
20880;SDS011;10600;53.096;8.802;2022-07-22T03:01:09;12.68;;;6.35;;
20880;SDS011;10600;53.096;8.802;2022-07-22T03:02:09;10.00;;;5.93;;
20880;SDS011;10600;53.096;8.802;2022-07-22T03:03:10;15.18;;;6.60;;
20880;SDS011;10600;53.096;8.802;2022-07-22T03:04:11;12.18;;;6.30;;
20880;SDS011;10600;53.096;8.802;2022-07-22T03:05:12;14.10;;;6.78;;
20880;SDS011;10600;53.096;8.802;2022-07-22T03:06:13;16.00;;;6.95;;
20880;SDS011;10600;53.096;8.802;2022-07-22T03:07:13;13.23;;;7.30;;
20880;SDS011;10600;53.096;8.802;2022-07-22T03:08:14;10.57;;;6.00;;
20880;SDS011;10600;53.096;8.802;2022-07-22T03:09:15;11.57;;;6.53;;
20880;SDS011;10600;53.096;8.802;2022-07-22T03:10:15;14.23;;;5.32;;
20880;SDS011;10600;53.096;8.802;2022-07-22T03:11:16;11.52;;;6.03;;
20880;SDS011;10600;53.096;8.802;2022-07-22T03:12:17;10.45;;;5.07;;
20880;SDS011;10600;53.096;8.802;2022-07-22T03:13:18;7.07;;;4.75;;
20880;SDS011;10600;53.096;8.802;2022-07-22T03:14:18;9.95;;;3.95;;
20880;SDS011;10600;53.096;8.802;2022-07-22T03:15:19;9.20;;;3.63;;
20880;SDS011;10600;53.096;8.802;2022-07-22T03:16:20;7.30;;;3.17;;
20880;SDS011;10600;53.096;8.802;2022-07-22T03:17:21;8.15;;;3.78;;
20880;SDS011;10600;53.096;8.802;2022-07-22T03:18:21;7.72;;;4.00;;
20880;SDS011;10600;53.096;8.802;2022-07-22T03:19:22;7.47;;;3.50;;
20880;SDS011;10600;53.096;8.802;2022-07-22T03:20:23;11.45;;;4.70;;
20880;SDS011;10600;53.096;8.802;2022-07-22T03:21:24;9.10;;;4.65;;
20880;SDS011;10600;53.096;8.802;2022-07-22T03:22:24;7.47;;;4.32;;
20880;SDS011;10600;53.096;8.802;2022-07-22T03:23:25;14.90;;;5.25;;
20880;SDS011;10600;53.096;8.802;2022-07-22T03:24:26;11.80;;;5.20;;
20880;SDS011;10600;53.096;8.802;2022-07-22T03:25:26;10.13;;;4.93;;
20880;SDS011;10600;53.096;8.802;2022-07-22T03:26:27;14.40;;;5.72;;
20880;SDS011;10600;53.096;8.802;2022-07-22T03:27:28;11.23;;;5.63;;
20880;SDS011;10600;53.096;8.802;2022-07-22T03:28:28;9.57;;;4.65;;
20880;SDS011;10600;53.096;8.802;2022-07-22T03:29:29;14.93;;;6.10;;
20880;SDS011;10600;53.096;8.802;2022-07-22T03:30:30;13.45;;;5.63;;
20880;SDS011;10600;53.096;8.802;2022-07-22T03:31:30;11.32;;;5.10;;
20880;SDS011;10600;53.096;8.802;2022-07-22T03:32:31;13.95;;;6.50;;
20880;SDS011;10600;53.096;8.802;2022-07-22T03:33:32;14.93;;;6.03;;
20880;SDS011;10600;53.096;8.802;2022-07-22T03:34:32;11.23;;;4.90;;
20880;SDS011;10600;53.096;8.802;2022-07-22T03:35:33;13.88;;;5.85;;
20880;SDS011;10600;53.096;8.802;2022-07-22T03:36:39;13.63;;;6.80;;
20880;SDS011;10600;53.096;8.802;2022-07-22T03:37:40;13.23;;;6.85;;
20880;SDS011;10600;53.096;8.802;2022-07-22T03:38:41;11.57;;;5.32;;
20880;SDS011;10600;53.096;8.802;2022-07-22T03:39:41;14.13;;;4.82;;
20880;SDS011;10600;53.096;8.802;2022-07-22T03:40:42;12.40;;;5.40;;
20880;SDS011;10600;53.096;8.802;2022-07-22T03:41:43;10.60;;;4.53;;
20880;SDS011;10600;53.096;8.802;2022-07-22T03:42:44;9.18;;;4.22;;
20880;SDS011;10600;53.096;8.802;2022-07-22T03:43:44;8.43;;;3.88;;
20880;SDS011;10600;53.096;8.802;2022-07-22T03:44:45;11.57;;;4.97;;
20880;SDS011;10600;53.096;8.802;2022-07-22T03:45:46;13.07;;;5.53;;
20880;SDS011;10600;53.096;8.802;2022-07-22T03:46:47;13.30;;;5.35;;
20880;SDS011;10600;53.096;8.802;2022-07-22T03:47:48;10.82;;;4.95;;
20880;SDS011;10600;53.096;8.802;2022-07-22T03:48:48;9.43;;;4.18;;
20880;SDS011;10600;53.096;8.802;2022-07-22T03:49:49;11.50;;;4.45;;
20880;SDS011;10600;53.096;8.802;2022-07-22T03:50:51;9.15;;;4.13;;
20880;SDS011;10600;53.096;8.802;2022-07-22T03:51:51;10.20;;;4.53;;
20880;SDS011;10600;53.096;8.802;2022-07-22T03:52:52;13.40;;;4.88;;
20880;SDS011;10600;53.096;8.802;2022-07-22T03:53:53;14.88;;;4.88;;
20880;SDS011;10600;53.096;8.802;2022-07-22T03:54:54;12.75;;;5.75;;
20880;SDS011;10600;53.096;8.802;2022-07-22T03:55:54;8.10;;;4.85;;
20880;SDS011;10600;53.096;8.802;2022-07-22T03:56:55;17.42;;;5.53;;
20880;SDS011;10600;53.096;8.802;2022-07-22T03:57:56;18.13;;;5.47;;
20880;SDS011;10600;53.096;8.802;2022-07-22T03:58:57;12.80;;;5.57;;
20880;SDS011;10600;53.096;8.802;2022-07-22T03:59:58;14.02;;;6.03;;
20880;SDS011;10600;53.096;8.802;2022-07-22T04:00:58;17.15;;;5.20;;
20880;SDS011;10600;53.096;8.802;2022-07-22T04:01:59;16.15;;;6.13;;
20880;SDS011;10600;53.096;8.802;2022-07-22T04:03:01;17.88;;;6.43;;
20880;SDS011;10600;53.096;8.802;2022-07-22T04:04:01;16.10;;;7.05;;
20880;SDS011;10600;53.096;8.802;2022-07-22T04:05:02;20.83;;;7.55;;
20880;SDS011;10600;53.096;8.802;2022-07-22T04:06:03;15.05;;;7.40;;
20880;SDS011;10600;53.096;8.802;2022-07-22T04:07:04;18.92;;;7.65;;
20880;SDS011;10600;53.096;8.802;2022-07-22T04:08:05;24.73;;;7.63;;
20880;SDS011;10600;53.096;8.802;2022-07-22T04:09:05;16.98;;;7.47;;
20880;SDS011;10600;53.096;8.802;2022-07-22T04:10:06;19.70;;;7.50;;
20880;SDS011;10600;53.096;8.802;2022-07-22T04:11:07;17.48;;;8.32;;
20880;SDS011;10600;53.096;8.802;2022-07-22T04:12:08;13.15;;;5.70;;
20880;SDS011;10600;53.096;8.802;2022-07-22T04:13:08;13.80;;;5.47;;
20880;SDS011;10600;53.096;8.802;2022-07-22T04:14:09;20.05;;;6.28;;
20880;SDS011;10600;53.096;8.802;2022-07-22T04:15:10;15.50;;;5.43;;
20880;SDS011;10600;53.096;8.802;2022-07-22T04:16:11;17.30;;;6.55;;
20880;SDS011;10600;53.096;8.802;2022-07-22T04:17:11;16.02;;;6.00;;
20880;SDS011;10600;53.096;8.802;2022-07-22T04:18:12;17.55;;;6.85;;
20880;SDS011;10600;53.096;8.802;2022-07-22T04:19:13;17.77;;;6.85;;
20880;SDS011;10600;53.096;8.802;2022-07-22T04:20:14;17.80;;;7.72;;
20880;SDS011;10600;53.096;8.802;2022-07-22T04:21:14;19.67;;;8.30;;
20880;SDS011;10600;53.096;8.802;2022-07-22T04:22:15;16.58;;;8.52;;
20880;SDS011;10600;53.096;8.802;2022-07-22T04:23:16;17.80;;;8.55;;
20880;SDS011;10600;53.096;8.802;2022-07-22T04:24:17;20.65;;;8.93;;
20880;SDS011;10600;53.096;8.802;2022-07-22T04:25:17;20.15;;;8.27;;
20880;SDS011;10600;53.096;8.802;2022-07-22T04:26:18;21.17;;;7.55;;
20880;SDS011;10600;53.096;8.802;2022-07-22T04:27:19;21.90;;;7.25;;
20880;SDS011;10600;53.096;8.802;2022-07-22T04:28:20;25.63;;;7.68;;
20880;SDS011;10600;53.096;8.802;2022-07-22T04:29:21;18.65;;;6.63;;
20880;SDS011;10600;53.096;8.802;2022-07-22T04:30:21;17.65;;;7.00;;
20880;SDS011;10600;53.096;8.802;2022-07-22T04:31:22;19.73;;;6.18;;
20880;SDS011;10600;53.096;8.802;2022-07-22T04:32:23;18.52;;;6.50;;
20880;SDS011;10600;53.096;8.802;2022-07-22T04:33:24;19.15;;;7.20;;
20880;SDS011;10600;53.096;8.802;2022-07-22T04:34:25;19.55;;;6.53;;
20880;SDS011;10600;53.096;8.802;2022-07-22T04:35:25;17.98;;;5.75;;
20880;SDS011;10600;53.096;8.802;2022-07-22T04:36:26;19.67;;;6.25;;
20880;SDS011;10600;53.096;8.802;2022-07-22T04:37:27;21.45;;;6.53;;
20880;SDS011;10600;53.096;8.802;2022-07-22T04:38:27;21.17;;;5.03;;
20880;SDS011;10600;53.096;8.802;2022-07-22T04:39:28;12.00;;;3.80;;
20880;SDS011;10600;53.096;8.802;2022-07-22T04:40:29;15.48;;;4.68;;
20880;SDS011;10600;53.096;8.802;2022-07-22T04:41:30;16.50;;;4.85;;
20880;SDS011;10600;53.096;8.802;2022-07-22T04:42:30;16.67;;;4.78;;
20880;SDS011;10600;53.096;8.802;2022-07-22T04:43:31;11.77;;;3.47;;
20880;SDS011;10600;53.096;8.802;2022-07-22T04:44:32;12.35;;;4.10;;
20880;SDS011;10600;53.096;8.802;2022-07-22T04:45:32;15.80;;;4.93;;
20880;SDS011;10600;53.096;8.802;2022-07-22T04:46:33;13.20;;;4.75;;
20880;SDS011;10600;53.096;8.802;2022-07-22T04:47:34;17.92;;;4.65;;
20880;SDS011;10600;53.096;8.802;2022-07-22T04:48:35;17.27;;;4.93;;
20880;SDS011;10600;53.096;8.802;2022-07-22T04:49:35;13.25;;;4.53;;
20880;SDS011;10600;53.096;8.802;2022-07-22T04:50:36;16.77;;;5.25;;
20880;SDS011;10600;53.096;8.802;2022-07-22T04:51:37;16.75;;;4.50;;
20880;SDS011;10600;53.096;8.802;2022-07-22T04:52:38;14.68;;;4.20;;
20880;SDS011;10600;53.096;8.802;2022-07-22T04:53:39;13.73;;;4.53;;
20880;SDS011;10600;53.096;8.802;2022-07-22T04:54:39;13.95;;;4.25;;
20880;SDS011;10600;53.096;8.802;2022-07-22T04:55:40;13.48;;;4.97;;
20880;SDS011;10600;53.096;8.802;2022-07-22T04:56:41;21.75;;;5.60;;
20880;SDS011;10600;53.096;8.802;2022-07-22T04:57:42;13.85;;;5.93;;
20880;SDS011;10600;53.096;8.802;2022-07-22T04:58:43;16.30;;;5.55;;
20880;SDS011;10600;53.096;8.802;2022-07-22T04:59:44;16.67;;;6.43;;
20880;SDS011;10600;53.096;8.802;2022-07-22T05:00:44;14.85;;;6.65;;
20880;SDS011;10600;53.096;8.802;2022-07-22T05:01:45;20.10;;;5.55;;
20880;SDS011;10600;53.096;8.802;2022-07-22T05:02:46;16.90;;;5.80;;
20880;SDS011;10600;53.096;8.802;2022-07-22T05:03:47;14.40;;;6.05;;
20880;SDS011;10600;53.096;8.802;2022-07-22T05:04:47;16.10;;;6.18;;
20880;SDS011;10600;53.096;8.802;2022-07-22T05:05:48;19.25;;;6.28;;
20880;SDS011;10600;53.096;8.802;2022-07-22T05:06:49;12.57;;;5.80;;
20880;SDS011;10600;53.096;8.802;2022-07-22T05:07:49;15.20;;;4.80;;
20880;SDS011;10600;53.096;8.802;2022-07-22T05:08:50;15.45;;;6.43;;
20880;SDS011;10600;53.096;8.802;2022-07-22T05:09:51;19.92;;;6.18;;
20880;SDS011;10600;53.096;8.802;2022-07-22T05:10:51;9.55;;;4.35;;
20880;SDS011;10600;53.096;8.802;2022-07-22T05:11:52;11.93;;;4.75;;
20880;SDS011;10600;53.096;8.802;2022-07-22T05:12:53;18.15;;;6.30;;
20880;SDS011;10600;53.096;8.802;2022-07-22T05:13:54;15.95;;;5.97;;
20880;SDS011;10600;53.096;8.802;2022-07-22T05:14:54;15.43;;;5.57;;
20880;SDS011;10600;53.096;8.802;2022-07-22T05:15:55;13.48;;;5.25;;
20880;SDS011;10600;53.096;8.802;2022-07-22T05:16:56;16.40;;;5.43;;
20880;SDS011;10600;53.096;8.802;2022-07-22T05:17:56;20.25;;;6.45;;
20880;SDS011;10600;53.096;8.802;2022-07-22T05:18:57;15.18;;;6.82;;
20880;SDS011;10600;53.096;8.802;2022-07-22T05:19:58;20.45;;;7.28;;
20880;SDS011;10600;53.096;8.802;2022-07-22T05:20:58;16.90;;;7.65;;
20880;SDS011;10600;53.096;8.802;2022-07-22T05:21:59;22.98;;;9.15;;
20880;SDS011;10600;53.096;8.802;2022-07-22T05:23:00;22.58;;;8.82;;
20880;SDS011;10600;53.096;8.802;2022-07-22T05:24:01;17.92;;;8.25;;
20880;SDS011;10600;53.096;8.802;2022-07-22T05:25:02;21.55;;;8.65;;
20880;SDS011;10600;53.096;8.802;2022-07-22T05:26:03;16.90;;;7.40;;
20880;SDS011;10600;53.096;8.802;2022-07-22T05:27:05;16.15;;;7.43;;
20880;SDS011;10600;53.096;8.802;2022-07-22T05:28:06;17.83;;;8.45;;
20880;SDS011;10600;53.096;8.802;2022-07-22T05:29:06;17.55;;;8.00;;
20880;SDS011;10600;53.096;8.802;2022-07-22T05:30:07;12.40;;;7.07;;
20880;SDS011;10600;53.096;8.802;2022-07-22T05:31:08;18.92;;;8.10;;
20880;SDS011;10600;53.096;8.802;2022-07-22T05:32:09;14.82;;;7.43;;
20880;SDS011;10600;53.096;8.802;2022-07-22T05:33:09;10.75;;;5.25;;
20880;SDS011;10600;53.096;8.802;2022-07-22T05:34:10;18.60;;;6.57;;
20880;SDS011;10600;53.096;8.802;2022-07-22T05:35:11;14.02;;;6.50;;
20880;SDS011;10600;53.096;8.802;2022-07-22T05:36:12;11.52;;;5.40;;
20880;SDS011;10600;53.096;8.802;2022-07-22T05:37:26;14.27;;;6.43;;
20880;SDS011;10600;53.096;8.802;2022-07-22T05:38:31;14.80;;;5.68;;
20880;SDS011;10600;53.096;8.802;2022-07-22T05:39:35;15.48;;;5.50;;
20880;SDS011;10600;53.096;8.802;2022-07-22T05:40:35;8.55;;;4.50;;
20880;SDS011;10600;53.096;8.802;2022-07-22T05:41:36;16.00;;;5.38;;
20880;SDS011;10600;53.096;8.802;2022-07-22T05:42:38;20.88;;;6.15;;
20880;SDS011;10600;53.096;8.802;2022-07-22T05:43:39;10.60;;;5.82;;
20880;SDS011;10600;53.096;8.802;2022-07-22T05:44:39;13.43;;;5.10;;
20880;SDS011;10600;53.096;8.802;2022-07-22T05:45:40;11.30;;;5.75;;
20880;SDS011;10600;53.096;8.802;2022-07-22T05:46:40;17.30;;;6.05;;
20880;SDS011;10600;53.096;8.802;2022-07-22T05:47:41;12.73;;;4.78;;
20880;SDS011;10600;53.096;8.802;2022-07-22T05:48:42;13.43;;;4.03;;
20880;SDS011;10600;53.096;8.802;2022-07-22T05:49:42;20.70;;;5.35;;
20880;SDS011;10600;53.096;8.802;2022-07-22T05:50:43;12.45;;;4.97;;
20880;SDS011;10600;53.096;8.802;2022-07-22T05:51:44;12.85;;;5.80;;
20880;SDS011;10600;53.096;8.802;2022-07-22T05:52:46;11.05;;;5.13;;
20880;SDS011;10600;53.096;8.802;2022-07-22T05:53:46;8.35;;;2.78;;
20880;SDS011;10600;53.096;8.802;2022-07-22T05:54:47;17.05;;;6.18;;
20880;SDS011;10600;53.096;8.802;2022-07-22T05:55:48;11.23;;;3.90;;
20880;SDS011;10600;53.096;8.802;2022-07-22T05:56:48;8.43;;;4.03;;
20880;SDS011;10600;53.096;8.802;2022-07-22T05:57:49;18.42;;;5.35;;
20880;SDS011;10600;53.096;8.802;2022-07-22T05:58:50;16.95;;;4.70;;
20880;SDS011;10600;53.096;8.802;2022-07-22T05:59:51;11.52;;;4.47;;
20880;SDS011;10600;53.096;8.802;2022-07-22T06:00:51;20.35;;;4.65;;
20880;SDS011;10600;53.096;8.802;2022-07-22T06:01:52;8.88;;;4.20;;
20880;SDS011;10600;53.096;8.802;2022-07-22T06:02:52;18.08;;;4.38;;